createdAt,value
2023-05-12T00:02:27.957Z,13.87
2023-05-12T00:04:55.743Z,14.93
2023-05-12T00:07:23.627Z,12.57
2023-05-12T00:09:51.340Z,12.70
2023-05-12T00:12:19.888Z,14.47
2023-05-12T00:14:47.582Z,13.87
2023-05-12T00:17:15.263Z,14.17
2023-05-12T00:19:44.408Z,15.20
2023-05-12T00:22:12.401Z,13.00
2023-05-12T00:24:40.744Z,15.73
2023-05-12T00:27:08.467Z,15.03
2023-05-12T00:29:36.796Z,15.70
2023-05-12T00:32:05.392Z,15.53
2023-05-12T00:34:33.207Z,15.70
2023-05-12T00:37:02.233Z,15.27
2023-05-12T00:39:29.912Z,15.20
2023-05-12T00:41:58.465Z,16.07
2023-05-12T00:44:26.900Z,14.93
2023-05-12T00:46:55.277Z,15.83
2023-05-12T00:49:23.076Z,14.80
2023-05-12T00:51:52.386Z,14.73
2023-05-12T00:54:21.662Z,14.20
2023-05-12T00:56:49.432Z,14.33
2023-05-12T00:59:17.125Z,13.57
2023-05-12T01:01:45.273Z,13.40
2023-05-12T01:04:13.084Z,13.63
2023-05-12T01:06:46.586Z,13.83
2023-05-12T01:09:15.054Z,14.10
2023-05-12T01:11:44.140Z,14.67
2023-05-12T01:14:11.882Z,15.07
2023-05-12T01:16:44.073Z,16.73
2023-05-12T01:19:25.571Z,16.67
2023-05-12T01:21:53.852Z,16.20
2023-05-12T01:24:25.656Z,16.13
2023-05-12T01:26:54.781Z,17.33
2023-05-12T01:29:23.391Z,15.10
2023-05-12T01:31:51.930Z,16.20
2023-05-12T01:34:19.606Z,16.63
2023-05-12T01:36:47.517Z,15.53
2023-05-12T01:39:15.203Z,15.37
2023-05-12T01:41:42.876Z,15.00
2023-05-12T01:44:11.932Z,15.77
2023-05-12T01:46:39.622Z,16.20
2023-05-12T01:49:07.338Z,16.10
2023-05-12T01:51:35.151Z,16.17
2023-05-12T01:54:02.828Z,14.70
2023-05-12T01:56:30.516Z,15.50
2023-05-12T01:58:58.380Z,15.43
2023-05-12T02:01:28.826Z,16.23
2023-05-12T02:03:56.824Z,15.80
2023-05-12T02:06:25.940Z,18.40
2023-05-12T02:08:53.877Z,18.93
2023-05-12T02:11:22.080Z,18.97
2023-05-12T02:13:49.835Z,19.90
2023-05-12T02:16:17.621Z,18.87
2023-05-12T02:18:46.862Z,18.60
2023-05-12T02:21:14.898Z,18.67
2023-05-12T02:23:42.737Z,18.87
2023-05-12T02:26:10.429Z,17.83
2023-05-12T02:28:38.853Z,17.47
2023-05-12T02:31:06.581Z,18.13
2023-05-12T02:33:34.313Z,18.13
2023-05-12T02:36:03.636Z,19.30
2023-05-12T02:38:31.319Z,20.03
2023-05-12T02:40:59.253Z,18.47
2023-05-12T02:43:27.083Z,17.80
2023-05-12T02:45:55.500Z,18.70
2023-05-12T02:48:23.195Z,18.13
2023-05-12T02:50:50.926Z,16.83
2023-05-12T02:53:19.982Z,17.87
2023-05-12T02:55:47.776Z,16.70
2023-05-12T02:58:15.725Z,17.10
2023-05-12T03:00:43.442Z,17.37
2023-05-12T03:03:11.366Z,18.03
2023-05-12T03:05:39.227Z,17.40
2023-05-12T03:08:06.950Z,18.50
2023-05-12T03:10:36.412Z,18.13
2023-05-12T03:13:04.290Z,21.23
2023-05-12T03:15:32.074Z,21.60
2023-05-12T03:17:59.764Z,22.33
2023-05-12T03:20:27.702Z,20.07
2023-05-12T03:22:55.484Z,20.47
2023-05-12T03:25:23.169Z,19.50
2023-05-12T03:27:52.238Z,18.90
2023-05-12T03:30:20.093Z,18.40
2023-05-12T03:32:48.176Z,18.53
2023-05-12T03:35:16.214Z,18.13
2023-05-12T03:37:44.062Z,19.00
2023-05-12T03:40:18.387Z,18.50
2023-05-12T03:42:46.779Z,19.87
2023-05-12T03:45:15.798Z,19.40
2023-05-12T03:47:43.536Z,19.40
2023-05-12T03:50:11.980Z,19.27
2023-05-12T03:52:41.266Z,19.00
2023-05-12T03:55:10.334Z,19.07
2023-05-12T03:57:38.187Z,18.33
2023-05-12T04:00:07.287Z,18.37
2023-05-12T04:02:36.778Z,18.80
2023-05-12T04:05:08.177Z,20.23
2023-05-12T04:07:35.889Z,22.33
2023-05-12T04:10:03.920Z,21.90
2023-05-12T04:12:31.690Z,20.77
2023-05-12T04:14:59.933Z,21.20
2023-05-12T04:17:28.023Z,22.63
2023-05-12T04:19:57.277Z,21.23
2023-05-12T04:22:25.716Z,20.97
2023-05-12T04:24:53.642Z,23.00
2023-05-12T04:27:21.573Z,21.90
2023-05-12T04:29:49.378Z,21.10
2023-05-12T04:32:18.396Z,20.50
2023-05-12T04:34:46.104Z,21.00
2023-05-12T04:37:15.174Z,18.80
2023-05-12T04:39:42.958Z,21.00
2023-05-12T04:42:10.664Z,19.80
2023-05-12T04:44:38.531Z,19.93
2023-05-12T04:47:06.615Z,18.87
2023-05-12T04:49:34.544Z,19.77
2023-05-12T04:52:02.435Z,17.73
2023-05-12T04:54:32.055Z,17.53
2023-05-12T04:56:59.761Z,18.07
2023-05-12T04:59:27.650Z,17.60
2023-05-12T05:01:55.429Z,18.00
2023-05-12T05:04:23.253Z,17.13
2023-05-12T05:06:51.091Z,16.83
2023-05-12T05:09:19.034Z,16.43
2023-05-12T05:11:48.456Z,19.17
2023-05-12T05:14:16.250Z,17.73
2023-05-12T05:16:43.978Z,16.70
2023-05-12T05:19:20.934Z,17.03
2023-05-12T05:21:53.648Z,15.03
2023-05-12T05:24:21.566Z,16.50
2023-05-12T05:26:50.802Z,16.67
2023-05-12T05:29:19.034Z,13.63
2023-05-12T05:31:47.118Z,13.63
2023-05-12T05:34:14.882Z,14.50
2023-05-12T05:36:42.598Z,13.53
2023-05-12T05:39:11.173Z,14.33
2023-05-12T05:41:39.158Z,13.73
2023-05-12T05:44:08.305Z,13.00
2023-05-12T05:46:36.038Z,13.20
2023-05-12T05:49:03.807Z,13.70
2023-05-12T05:51:31.595Z,12.60
2023-05-12T05:53:59.461Z,13.13
2023-05-12T05:56:27.353Z,13.10
2023-05-12T05:58:55.086Z,12.60
2023-05-12T06:01:24.215Z,12.53
2023-05-12T06:03:52.011Z,12.13
2023-05-12T06:06:19.809Z,13.37
2023-05-12T06:08:47.465Z,11.93
2023-05-12T06:11:17.750Z,10.80
2023-05-12T06:13:45.725Z,12.10
2023-05-12T06:16:13.441Z,11.77
2023-05-12T06:18:42.631Z,10.23
2023-05-12T06:21:10.611Z,10.30
2023-05-12T06:23:38.317Z,10.37
2023-05-12T06:26:08.049Z,10.13
2023-05-12T06:28:35.745Z,10.20
2023-05-12T06:31:03.666Z,9.33
2023-05-12T06:33:31.376Z,9.33
2023-05-12T06:36:00.485Z,9.30
2023-05-12T06:38:28.247Z,8.77
2023-05-12T06:40:55.948Z,8.47
2023-05-12T06:43:24.330Z,8.87
2023-05-12T06:45:52.196Z,7.67
2023-05-12T06:48:19.958Z,8.60
2023-05-12T06:50:48.085Z,8.33
2023-05-12T06:53:18.120Z,7.77
2023-05-12T06:55:47.151Z,6.97
2023-05-12T06:58:17.070Z,7.73
2023-05-12T07:00:44.776Z,7.67
2023-05-12T07:03:13.008Z,7.00
2023-05-12T07:05:41.354Z,7.30
2023-05-12T07:08:10.054Z,6.30
2023-05-12T07:10:39.991Z,6.40
2023-05-12T07:13:08.206Z,6.17
2023-05-12T07:15:36.253Z,5.90
2023-05-12T07:18:04.207Z,5.37
2023-05-12T07:20:31.950Z,5.60
2023-05-12T07:22:59.776Z,5.63
2023-05-12T07:25:28.185Z,5.97
2023-05-12T07:27:57.313Z,5.33
2023-05-12T07:30:25.214Z,5.90
2023-05-12T07:32:54.183Z,6.57
2023-05-12T07:35:22.397Z,6.10
2023-05-12T07:37:50.291Z,6.30
2023-05-12T07:40:18.274Z,6.37
2023-05-12T07:42:46.027Z,5.77
2023-05-12T07:45:22.780Z,6.17
2023-05-12T07:47:51.617Z,6.13
2023-05-12T07:50:19.605Z,6.33
2023-05-12T07:52:48.925Z,6.40
2023-05-12T07:55:17.157Z,6.53
2023-05-12T07:57:45.044Z,6.00
2023-05-12T08:00:15.687Z,6.80
2023-05-12T08:02:44.204Z,5.87
2023-05-12T08:05:12.541Z,6.00
2023-05-12T08:07:43.444Z,6.30
2023-05-12T08:10:12.908Z,6.87
2023-05-12T08:12:41.257Z,5.93
2023-05-12T08:15:10.069Z,6.43
2023-05-12T08:17:39.340Z,6.20
2023-05-12T08:20:09.171Z,5.97
2023-05-12T08:22:39.947Z,6.73
2023-05-12T08:25:10.358Z,6.80
2023-05-12T08:27:41.191Z,6.63
2023-05-12T08:30:09.959Z,6.70
2023-05-12T08:32:39.103Z,6.73
2023-05-12T08:35:07.393Z,6.53
2023-05-12T08:37:35.243Z,6.50
2023-05-12T08:40:05.067Z,6.47
2023-05-12T08:42:39.605Z,7.40
2023-05-12T08:45:10.121Z,7.77
2023-05-12T08:47:40.104Z,7.67
2023-05-12T08:50:09.992Z,7.33
2023-05-12T08:52:37.900Z,6.37
2023-05-12T08:55:06.911Z,6.63
2023-05-12T08:57:36.955Z,6.50
2023-05-12T09:00:09.104Z,7.30
2023-05-12T09:02:52.270Z,5.80
2023-05-12T09:05:23.360Z,6.17
2023-05-12T09:07:52.980Z,6.00
2023-05-12T09:10:34.571Z,5.80
2023-05-12T09:13:05.615Z,6.30
2023-05-12T09:15:39.035Z,5.90
2023-05-12T09:18:09.221Z,6.10
2023-05-12T09:20:37.444Z,5.73
2023-05-12T09:23:15.758Z,5.83
2023-05-12T09:25:43.750Z,6.00
2023-05-12T09:28:11.656Z,6.27
2023-05-12T09:30:42.218Z,7.17
2023-05-12T09:33:13.392Z,6.37
2023-05-12T09:35:42.531Z,6.03
2023-05-12T09:38:12.153Z,5.60
2023-05-12T09:40:41.106Z,4.97
2023-05-12T09:43:09.632Z,5.20
2023-05-12T09:45:48.030Z,4.83
2023-05-12T09:48:18.762Z,4.80
2023-05-12T09:50:51.120Z,4.93
2023-05-12T09:53:19.694Z,4.40
2023-05-12T09:55:48.500Z,4.80
2023-05-12T09:58:18.093Z,4.97
2023-05-12T10:03:22.220Z,4.53
2023-05-12T10:05:55.112Z,5.07
2023-05-12T10:08:28.111Z,5.30
2023-05-12T10:10:57.817Z,4.27
2023-05-12T10:13:27.090Z,5.00
2023-05-12T10:15:57.486Z,4.00
2023-05-12T10:18:27.239Z,4.47
2023-05-12T10:20:55.134Z,4.57
2023-05-12T10:23:24.372Z,4.27
2023-05-12T10:25:53.971Z,3.87
2023-05-12T10:28:22.519Z,4.27
2023-05-12T10:30:51.755Z,4.60
2023-05-12T10:33:19.960Z,4.57
2023-05-12T10:35:50.386Z,4.93
2023-05-12T10:38:21.494Z,4.90
2023-05-12T10:40:59.041Z,4.47
2023-05-12T10:43:35.809Z,4.65
2023-05-12T10:46:18.106Z,5.20
2023-05-12T10:49:00.052Z,4.35
2023-05-12T10:51:32.196Z,5.40
2023-05-12T10:54:01.493Z,5.03
2023-05-12T10:56:31.614Z,4.80
2023-05-12T10:59:24.800Z,5.43
2023-05-12T11:02:03.667Z,4.30
2023-05-12T11:04:42.706Z,4.80
2023-05-12T11:07:14.357Z,3.57
2023-05-12T11:09:56.705Z,3.58
2023-05-12T11:12:28.090Z,3.45
2023-05-12T11:14:55.992Z,4.07
2023-05-12T11:17:23.717Z,3.38
2023-05-12T11:19:52.706Z,3.78
2023-05-12T11:22:23.284Z,3.20
2023-05-12T11:24:52.879Z,3.50
2023-05-12T11:27:26.690Z,4.55
2023-05-12T11:29:59.557Z,3.70
2023-05-12T11:32:30.164Z,3.87
2023-05-12T11:35:11.545Z,4.10
2023-05-12T11:37:43.673Z,3.72
2023-05-12T11:40:19.294Z,3.80
2023-05-12T11:42:51.480Z,4.05
2023-05-12T11:45:24.695Z,3.92
2023-05-12T11:47:53.161Z,4.05
2023-05-12T11:50:24.882Z,3.93
2023-05-12T11:52:54.638Z,4.07
2023-05-12T11:55:24.666Z,3.95
2023-05-12T11:58:00.302Z,3.85
2023-05-12T12:00:31.010Z,3.63
2023-05-12T12:03:09.563Z,3.92
2023-05-12T12:05:37.629Z,3.90
2023-05-12T12:08:08.136Z,3.83
2023-05-12T12:10:36.166Z,3.63
2023-05-12T12:13:03.928Z,4.85
2023-05-12T12:15:32.103Z,3.80
2023-05-12T12:18:02.201Z,3.65
2023-05-12T12:20:32.421Z,3.50
2023-05-12T12:23:00.174Z,4.13
2023-05-12T12:25:29.275Z,4.03
2023-05-12T12:27:58.178Z,3.70
2023-05-12T12:30:25.999Z,3.80
2023-05-12T12:32:53.786Z,3.42
2023-05-12T12:35:22.267Z,3.83
2023-05-12T12:37:52.092Z,3.55
2023-05-12T12:40:20.702Z,3.70
2023-05-12T12:42:49.879Z,3.80
2023-05-12T12:45:20.030Z,3.40
2023-05-12T12:47:48.253Z,2.72
2023-05-12T12:50:16.000Z,3.33
2023-05-12T12:52:44.217Z,3.40
2023-05-12T12:55:12.019Z,2.80
2023-05-12T12:57:39.716Z,2.97
2023-05-12T13:00:10.834Z,2.50
2023-05-12T13:02:39.028Z,2.78
2023-05-12T13:05:08.231Z,2.72
2023-05-12T13:07:36.150Z,2.78
2023-05-12T13:10:03.945Z,3.38
2023-05-12T13:12:33.141Z,3.20
2023-05-12T13:15:02.148Z,2.47
2023-05-12T13:17:31.322Z,2.58
2023-05-12T13:19:59.594Z,2.33
2023-05-12T13:22:28.923Z,2.83
2023-05-12T13:24:57.219Z,3.00
2023-05-12T13:27:25.175Z,2.75
2023-05-12T13:29:53.138Z,2.97
2023-05-12T13:32:21.770Z,3.10
2023-05-12T13:34:51.393Z,2.92
2023-05-12T13:37:19.282Z,2.97
2023-05-12T13:39:47.166Z,2.80
2023-05-12T13:42:15.069Z,3.13
2023-05-12T13:44:43.388Z,2.58
2023-05-12T13:47:11.518Z,2.70
2023-05-12T13:49:40.114Z,2.92
2023-05-12T13:52:09.519Z,2.90
2023-05-12T13:54:37.181Z,3.10
2023-05-12T13:57:06.333Z,2.70
2023-05-12T13:59:34.177Z,2.60
2023-05-12T14:02:02.182Z,2.90
2023-05-12T14:04:29.872Z,3.28
2023-05-12T14:06:57.713Z,3.50
2023-05-12T14:09:26.938Z,2.55
2023-05-12T14:11:55.044Z,2.80
2023-05-12T14:14:23.114Z,2.97
2023-05-12T14:16:50.993Z,2.50
2023-05-12T14:19:18.746Z,2.83
2023-05-12T14:21:46.566Z,3.05
2023-05-12T14:24:14.224Z,3.08
2023-05-12T14:26:43.326Z,3.03
2023-05-12T14:29:11.072Z,3.08
2023-05-12T14:31:39.143Z,2.60
2023-05-12T14:34:09.024Z,3.08
2023-05-12T14:36:36.693Z,2.83
2023-05-12T14:39:04.748Z,3.03
2023-05-12T14:41:32.419Z,2.38
2023-05-12T14:44:01.564Z,2.97
2023-05-12T14:46:29.654Z,2.75
2023-05-12T14:48:57.531Z,3.08
2023-05-12T14:51:25.254Z,3.17
2023-05-12T14:53:53.142Z,3.05
2023-05-12T14:56:20.862Z,2.77
2023-05-12T14:58:48.918Z,3.00
2023-05-12T15:01:18.103Z,2.70
2023-05-12T15:03:46.660Z,3.08
2023-05-12T15:06:16.392Z,3.40
2023-05-12T15:08:44.394Z,3.00
2023-05-12T15:11:15.202Z,3.22
2023-05-12T15:13:46.111Z,2.97
2023-05-12T15:16:16.914Z,3.20
2023-05-12T15:18:59.526Z,3.28
2023-05-12T15:21:40.682Z,2.67
2023-05-12T15:24:23.717Z,3.03
2023-05-12T15:27:04.165Z,2.75
2023-05-12T15:29:42.302Z,2.80
2023-05-12T15:32:11.132Z,3.03
2023-05-12T15:34:49.713Z,3.10
2023-05-12T15:37:26.344Z,2.95
2023-05-12T15:39:58.120Z,2.88
2023-05-12T15:42:33.357Z,2.95
2023-05-12T15:45:03.538Z,2.80
2023-05-12T15:47:32.048Z,2.97
2023-05-12T15:50:01.703Z,2.38
2023-05-12T15:52:29.450Z,3.15
2023-05-12T15:54:57.332Z,2.83
2023-05-12T15:57:25.134Z,2.97
2023-05-12T15:59:58.368Z,2.92
2023-05-12T16:02:26.180Z,2.60
2023-05-12T16:04:53.953Z,3.15
2023-05-12T16:07:23.004Z,2.97
2023-05-12T16:09:50.689Z,2.60
2023-05-12T16:12:18.451Z,3.13
2023-05-12T16:14:46.182Z,3.08
2023-05-12T16:17:13.910Z,3.05
2023-05-12T16:19:41.568Z,3.00
2023-05-12T16:22:10.280Z,3.00
2023-05-12T16:24:39.407Z,3.28
2023-05-12T16:27:07.190Z,3.17
2023-05-12T16:29:35.033Z,3.17
2023-05-12T16:32:03.023Z,3.00
2023-05-12T16:34:30.815Z,3.30
2023-05-12T16:36:58.522Z,2.60
2023-05-12T16:39:26.218Z,2.70
2023-05-12T16:41:55.881Z,2.80
2023-05-12T16:44:23.599Z,3.17
2023-05-12T16:46:51.521Z,2.70
2023-05-12T16:49:19.274Z,2.40
2023-05-12T16:51:47.187Z,2.70
2023-05-12T16:54:14.903Z,2.70
2023-05-12T16:56:42.597Z,3.10
2023-05-12T16:59:11.699Z,2.73
2023-05-12T17:01:40.085Z,2.77
2023-05-12T17:04:09.391Z,2.53
2023-05-12T17:06:37.184Z,2.83
2023-05-12T17:09:05.676Z,3.17
2023-05-12T17:11:42.965Z,2.60
2023-05-12T17:14:13.831Z,2.60
2023-05-12T17:16:41.761Z,2.83
2023-05-12T17:25:24.130Z,2.95
2023-05-12T17:27:52.138Z,2.43
2023-05-12T17:30:39.494Z,2.67
2023-05-12T17:33:12.113Z,2.83
2023-05-12T17:35:40.191Z,2.50
2023-05-12T17:38:08.355Z,3.33
2023-05-12T17:40:36.184Z,2.87
2023-05-12T17:43:05.164Z,2.70
2023-05-12T17:45:34.997Z,2.60
2023-05-12T17:48:24.065Z,2.60
2023-05-12T17:54:41.569Z,3.10
2023-05-12T18:01:00.277Z,2.57
2023-05-12T18:03:33.624Z,2.63
2023-05-12T18:06:01.821Z,2.70
2023-05-12T18:08:29.819Z,3.20
2023-05-12T18:10:57.710Z,3.10
2023-05-12T18:14:11.258Z,2.70
2023-05-12T18:16:40.775Z,2.53
2023-05-12T18:19:08.778Z,2.87
2023-05-12T18:21:36.748Z,2.57
2023-05-12T18:24:04.760Z,2.70
2023-05-12T18:26:32.687Z,2.80
2023-05-12T18:29:00.591Z,3.03
2023-05-12T18:31:28.562Z,2.80
2023-05-12T18:33:57.730Z,3.00
2023-05-12T18:36:25.586Z,2.70
2023-05-12T18:38:53.550Z,2.90
2023-05-12T18:41:21.428Z,3.28
2023-05-12T18:43:50.158Z,3.07
2023-05-12T18:46:17.986Z,2.70
2023-05-12T18:48:46.939Z,2.73
2023-05-12T18:51:16.049Z,3.10
2023-05-12T18:53:43.914Z,2.63
2023-05-12T18:56:11.785Z,2.92
2023-05-12T18:58:39.635Z,2.87
2023-05-12T19:01:07.415Z,2.77
2023-05-12T19:03:35.238Z,3.03
2023-05-12T19:06:03.033Z,3.20
2023-05-12T19:08:44.159Z,3.07
2023-05-12T19:11:12.585Z,3.37
2023-05-12T19:13:42.542Z,3.20
2023-05-12T19:19:59.151Z,2.93
2023-05-12T19:22:27.521Z,2.80
2023-05-12T19:24:56.839Z,2.83
2023-05-12T19:27:27.088Z,3.10
2023-05-12T19:29:54.962Z,2.77
2023-05-12T19:32:23.149Z,2.90
2023-05-12T19:34:51.601Z,2.87
2023-05-12T19:37:20.369Z,3.20
2023-05-12T19:39:48.134Z,2.73
2023-05-12T19:42:17.281Z,3.30
2023-05-12T19:44:45.006Z,3.23
2023-05-12T19:47:14.092Z,3.00
2023-05-12T19:49:41.893Z,2.90
2023-05-12T19:52:10.848Z,3.20
2023-05-12T19:54:38.578Z,2.90
2023-05-12T19:57:06.602Z,3.20
2023-05-12T19:59:36.214Z,3.50
2023-05-12T20:02:04.152Z,3.80
2023-05-12T20:04:31.955Z,3.03
2023-05-12T20:06:59.760Z,3.10
2023-05-12T20:09:28.234Z,2.77
2023-05-12T20:11:55.934Z,3.20
2023-05-12T20:14:23.716Z,3.07
2023-05-12T20:16:53.019Z,3.47
2023-05-12T20:19:20.829Z,3.63
2023-05-12T20:21:48.551Z,3.30
2023-05-12T20:24:16.379Z,3.20
2023-05-12T20:26:44.210Z,3.47
2023-05-12T20:29:12.076Z,3.77
2023-05-12T20:31:39.844Z,3.37
2023-05-12T20:34:09.060Z,3.50
2023-05-12T20:36:36.747Z,3.60
2023-05-12T20:39:04.698Z,3.50
2023-05-12T20:41:32.462Z,3.50
2023-05-12T20:44:00.157Z,3.20
2023-05-12T20:46:28.381Z,3.53
2023-05-12T20:48:56.190Z,3.57
2023-05-12T20:51:25.523Z,3.20
2023-05-12T20:53:53.750Z,3.10
2023-05-12T20:56:23.260Z,3.43
2023-05-12T20:58:51.153Z,3.53
2023-05-12T21:01:18.978Z,3.07
2023-05-12T21:03:46.703Z,3.33
2023-05-12T21:06:14.579Z,3.40
2023-05-12T21:08:43.734Z,3.63
2023-05-12T21:11:16.549Z,2.87
2023-05-12T21:13:44.652Z,3.80
2023-05-12T21:16:12.579Z,3.30
2023-05-12T21:18:40.615Z,3.80
2023-05-12T21:21:08.609Z,3.33
2023-05-12T21:23:37.483Z,3.20
2023-05-12T21:26:06.647Z,3.67
2023-05-12T21:28:34.369Z,4.00
2023-05-12T21:31:02.109Z,4.00
2023-05-12T21:33:30.321Z,3.80
2023-05-12T21:35:57.990Z,3.70
2023-05-12T21:38:25.763Z,3.93
2023-05-12T21:40:55.303Z,4.07
2023-05-12T21:43:24.760Z,3.67
2023-05-12T21:45:52.712Z,4.37
2023-05-12T21:48:20.464Z,3.93
2023-05-12T21:50:58.129Z,4.10
2023-05-12T21:53:25.840Z,3.70
2023-05-12T21:55:53.624Z,3.90
2023-05-12T21:58:23.545Z,4.40
2023-05-12T22:00:53.023Z,3.70
2023-05-12T22:03:21.913Z,3.57
2023-05-12T22:05:50.264Z,3.73
2023-05-12T22:08:18.482Z,3.60
2023-05-12T22:10:46.804Z,3.67
2023-05-12T22:13:14.591Z,3.57
2023-05-12T22:15:42.646Z,3.97
2023-05-12T22:18:11.741Z,4.10
2023-05-12T22:20:39.766Z,3.63
2023-05-12T22:23:07.481Z,3.73
2023-05-12T22:25:35.498Z,3.70
2023-05-12T22:28:04.037Z,3.83
2023-05-12T22:30:33.042Z,3.93
2023-05-12T22:33:01.032Z,4.17
2023-05-12T22:35:30.128Z,3.80
2023-05-12T22:37:58.065Z,3.83
2023-05-12T22:40:27.104Z,4.10
2023-05-12T22:42:54.761Z,3.63
2023-05-12T22:45:22.493Z,3.37
2023-05-12T22:47:50.508Z,4.03
2023-05-12T22:50:18.792Z,3.67
2023-05-12T22:52:47.995Z,4.30
2023-05-12T22:55:15.719Z,4.13
2023-05-12T22:57:45.891Z,3.97
2023-05-12T23:00:14.662Z,3.67
2023-05-12T23:02:42.404Z,3.83
2023-05-12T23:05:10.896Z,3.77
2023-05-12T23:07:38.588Z,3.57
2023-05-12T23:10:09.131Z,3.80
2023-05-12T23:12:36.826Z,3.83
2023-05-12T23:15:04.855Z,4.10
2023-05-12T23:17:32.675Z,4.00
2023-05-12T23:20:00.495Z,3.47
2023-05-12T23:22:28.207Z,4.20
2023-05-12T23:24:57.487Z,4.00
2023-05-12T23:27:26.981Z,3.73
2023-05-12T23:29:54.781Z,4.07
2023-05-12T23:32:22.561Z,4.10
2023-05-12T23:34:50.595Z,4.47
2023-05-12T23:37:19.268Z,4.20
2023-05-12T23:39:47.023Z,3.93
2023-05-12T23:42:22.646Z,4.20
2023-05-12T23:44:50.633Z,4.20
2023-05-12T23:47:18.408Z,4.03
2023-05-12T23:49:46.144Z,4.27
2023-05-12T23:52:13.791Z,4.50
2023-05-12T23:54:41.483Z,4.20
2023-05-12T23:57:09.159Z,3.73
2023-05-12T23:59:38.594Z,4.10
